sensor_id;sensor_type;location;lat;lon;timestamp;P1;durP1;ratioP1;P2;durP2;ratioP2
6101;SDS011;3081;50.584;7.032;2024-03-07T00:00:42;281.57;;;251.37;;
6101;SDS011;3081;50.584;7.032;2024-03-07T00:03:09;247.10;;;220.93;;
6101;SDS011;3081;50.584;7.032;2024-03-07T00:05:36;367.57;;;297.47;;
6101;SDS011;3081;50.584;7.032;2024-03-07T00:08:03;349.90;;;289.23;;
6101;SDS011;3081;50.584;7.032;2024-03-07T00:10:31;291.93;;;260.20;;
6101;SDS011;3081;50.584;7.032;2024-03-07T00:13:02;271.80;;;242.37;;
6101;SDS011;3081;50.584;7.032;2024-03-07T00:15:29;219.40;;;195.77;;
6101;SDS011;3081;50.584;7.032;2024-03-07T00:17:56;225.67;;;204.87;;
6101;SDS011;3081;50.584;7.032;2024-03-07T00:20:23;233.03;;;210.63;;
6101;SDS011;3081;50.584;7.032;2024-03-07T00:22:51;63.57;;;52.77;;
6101;SDS011;3081;50.584;7.032;2024-03-07T00:25:18;53.77;;;48.17;;
6101;SDS011;3081;50.584;7.032;2024-03-07T00:27:47;52.67;;;41.67;;
6101;SDS011;3081;50.584;7.032;2024-03-07T00:30:16;40.87;;;20.13;;
6101;SDS011;3081;50.584;7.032;2024-03-07T00:32:45;69.17;;;58.77;;
6101;SDS011;3081;50.584;7.032;2024-03-07T00:35:12;65.47;;;53.53;;
6101;SDS011;3081;50.584;7.032;2024-03-07T00:37:39;76.77;;;66.83;;
6101;SDS011;3081;50.584;7.032;2024-03-07T00:40:07;66.10;;;51.27;;
6101;SDS011;3081;50.584;7.032;2024-03-07T00:42:35;68.73;;;43.13;;
6101;SDS011;3081;50.584;7.032;2024-03-07T00:45:02;87.43;;;74.27;;
6101;SDS011;3081;50.584;7.032;2024-03-07T00:47:31;108.43;;;97.83;;
6101;SDS011;3081;50.584;7.032;2024-03-07T00:49:58;231.63;;;207.40;;
6101;SDS011;3081;50.584;7.032;2024-03-07T00:52:26;207.50;;;177.63;;
6101;SDS011;3081;50.584;7.032;2024-03-07T00:54:53;231.60;;;207.57;;
6101;SDS011;3081;50.584;7.032;2024-03-07T00:57:20;285.77;;;235.73;;
6101;SDS011;3081;50.584;7.032;2024-03-07T00:59:47;274.17;;;241.20;;
6101;SDS011;3081;50.584;7.032;2024-03-07T01:02:14;231.37;;;205.90;;
6101;SDS011;3081;50.584;7.032;2024-03-07T01:04:43;284.67;;;228.83;;
6101;SDS011;3081;50.584;7.032;2024-03-07T01:07:10;351.03;;;259.07;;
6101;SDS011;3081;50.584;7.032;2024-03-07T01:09:37;45.10;;;21.23;;
6101;SDS011;3081;50.584;7.032;2024-03-07T01:12:03;142.23;;;123.27;;
6101;SDS011;3081;50.584;7.032;2024-03-07T01:14:31;298.13;;;223.17;;
6101;SDS011;3081;50.584;7.032;2024-03-07T01:16:58;316.50;;;236.80;;
6101;SDS011;3081;50.584;7.032;2024-03-07T01:19:25;401.20;;;259.00;;
6101;SDS011;3081;50.584;7.032;2024-03-07T01:21:53;320.70;;;217.43;;
6101;SDS011;3081;50.584;7.032;2024-03-07T01:24:20;422.23;;;241.40;;
6101;SDS011;3081;50.584;7.032;2024-03-07T01:26:47;394.33;;;232.70;;
6101;SDS011;3081;50.584;7.032;2024-03-07T01:29:14;445.40;;;240.30;;
6101;SDS011;3081;50.584;7.032;2024-03-07T01:31:41;247.60;;;177.20;;
6101;SDS011;3081;50.584;7.032;2024-03-07T01:34:09;402.67;;;231.00;;
6101;SDS011;3081;50.584;7.032;2024-03-07T01:36:36;384.20;;;224.03;;
6101;SDS011;3081;50.584;7.032;2024-03-07T01:39:04;125.13;;;112.53;;
6101;SDS011;3081;50.584;7.032;2024-03-07T01:41:31;155.83;;;123.60;;
6101;SDS011;3081;50.584;7.032;2024-03-07T01:43:59;294.90;;;190.60;;
6101;SDS011;3081;50.584;7.032;2024-03-07T01:46:27;307.53;;;212.07;;
6101;SDS011;3081;50.584;7.032;2024-03-07T01:48:55;401.27;;;242.63;;
6101;SDS011;3081;50.584;7.032;2024-03-07T01:51:22;404.53;;;229.97;;
6101;SDS011;3081;50.584;7.032;2024-03-07T01:53:49;531.00;;;245.27;;
6101;SDS011;3081;50.584;7.032;2024-03-07T01:56:19;38.27;;;18.07;;
6101;SDS011;3081;50.584;7.032;2024-03-07T01:58:48;33.00;;;15.40;;
6101;SDS011;3081;50.584;7.032;2024-03-07T02:01:17;33.30;;;15.20;;
6101;SDS011;3081;50.584;7.032;2024-03-07T02:03:44;33.43;;;16.83;;
6101;SDS011;3081;50.584;7.032;2024-03-07T02:06:11;44.40;;;18.60;;
6101;SDS011;3081;50.584;7.032;2024-03-07T02:08:38;50.77;;;28.50;;
6101;SDS011;3081;50.584;7.032;2024-03-07T02:11:05;298.43;;;192.43;;
6101;SDS011;3081;50.584;7.032;2024-03-07T02:13:36;193.63;;;149.30;;
6101;SDS011;3081;50.584;7.032;2024-03-07T02:16:03;325.57;;;199.50;;
6101;SDS011;3081;50.584;7.032;2024-03-07T02:18:30;190.47;;;136.07;;
6101;SDS011;3081;50.584;7.032;2024-03-07T02:20:59;49.97;;;20.97;;
6101;SDS011;3081;50.584;7.032;2024-03-07T02:23:26;185.50;;;144.80;;
6101;SDS011;3081;50.584;7.032;2024-03-07T02:25:53;44.27;;;20.80;;
6101;SDS011;3081;50.584;7.032;2024-03-07T02:28:20;261.67;;;181.10;;
6101;SDS011;3081;50.584;7.032;2024-03-07T02:30:47;301.23;;;194.93;;
6101;SDS011;3081;50.584;7.032;2024-03-07T02:33:14;344.70;;;194.87;;
6101;SDS011;3081;50.584;7.032;2024-03-07T02:35:41;338.07;;;190.60;;
6101;SDS011;3081;50.584;7.032;2024-03-07T02:38:09;364.13;;;203.13;;
6101;SDS011;3081;50.584;7.032;2024-03-07T02:40:36;48.90;;;21.97;;
6101;SDS011;3081;50.584;7.032;2024-03-07T02:43:03;55.53;;;22.70;;
6101;SDS011;3081;50.584;7.032;2024-03-07T02:45:32;47.40;;;19.23;;
6101;SDS011;3081;50.584;7.032;2024-03-07T02:47:59;41.47;;;19.40;;
6101;SDS011;3081;50.584;7.032;2024-03-07T02:50:26;48.30;;;20.70;;
6101;SDS011;3081;50.584;7.032;2024-03-07T02:52:53;56.03;;;27.27;;
6101;SDS011;3081;50.584;7.032;2024-03-07T02:55:21;66.20;;;33.37;;
6101;SDS011;3081;50.584;7.032;2024-03-07T02:57:48;71.87;;;49.43;;
6101;SDS011;3081;50.584;7.032;2024-03-07T03:00:15;63.20;;;36.40;;
6101;SDS011;3081;50.584;7.032;2024-03-07T03:02:46;56.97;;;24.27;;
6101;SDS011;3081;50.584;7.032;2024-03-07T03:05:14;59.20;;;24.97;;
6101;SDS011;3081;50.584;7.032;2024-03-07T03:07:41;69.23;;;29.77;;
6101;SDS011;3081;50.584;7.032;2024-03-07T03:10:18;53.83;;;26.80;;
6101;SDS011;3081;50.584;7.032;2024-03-07T03:12:47;63.47;;;28.93;;
6101;SDS011;3081;50.584;7.032;2024-03-07T03:15:14;75.90;;;49.43;;
6101;SDS011;3081;50.584;7.032;2024-03-07T03:17:42;54.20;;;19.77;;
6101;SDS011;3081;50.584;7.032;2024-03-07T03:20:10;45.33;;;20.47;;
6101;SDS011;3081;50.584;7.032;2024-03-07T03:22:50;56.27;;;22.73;;
6101;SDS011;3081;50.584;7.032;2024-03-07T03:25:19;48.80;;;21.23;;
6101;SDS011;3081;50.584;7.032;2024-03-07T03:27:49;51.40;;;21.83;;
6101;SDS011;3081;50.584;7.032;2024-03-07T03:30:16;53.10;;;21.10;;
6101;SDS011;3081;50.584;7.032;2024-03-07T03:32:44;55.63;;;22.20;;
6101;SDS011;3081;50.584;7.032;2024-03-07T03:35:13;54.97;;;23.37;;
6101;SDS011;3081;50.584;7.032;2024-03-07T03:37:41;61.67;;;28.27;;
6101;SDS011;3081;50.584;7.032;2024-03-07T03:40:08;58.53;;;32.47;;
6101;SDS011;3081;50.584;7.032;2024-03-07T03:42:37;61.87;;;31.43;;
6101;SDS011;3081;50.584;7.032;2024-03-07T03:45:06;82.30;;;59.77;;
6101;SDS011;3081;50.584;7.032;2024-03-07T03:47:35;74.43;;;51.70;;
6101;SDS011;3081;50.584;7.032;2024-03-07T03:50:03;91.70;;;70.57;;
6101;SDS011;3081;50.584;7.032;2024-03-07T03:52:31;98.47;;;83.47;;
6101;SDS011;3081;50.584;7.032;2024-03-07T03:54:58;84.90;;;66.27;;
6101;SDS011;3081;50.584;7.032;2024-03-07T03:57:25;114.40;;;75.53;;
6101;SDS011;3081;50.584;7.032;2024-03-07T03:59:52;119.43;;;101.03;;
6101;SDS011;3081;50.584;7.032;2024-03-07T04:02:21;148.63;;;126.33;;
6101;SDS011;3081;50.584;7.032;2024-03-07T04:04:48;164.67;;;136.97;;
6101;SDS011;3081;50.584;7.032;2024-03-07T04:07:16;188.73;;;148.73;;
6101;SDS011;3081;50.584;7.032;2024-03-07T04:09:44;184.37;;;145.30;;
6101;SDS011;3081;50.584;7.032;2024-03-07T04:12:12;128.30;;;103.70;;
6101;SDS011;3081;50.584;7.032;2024-03-07T04:14:40;139.83;;;104.50;;
6101;SDS011;3081;50.584;7.032;2024-03-07T04:17:08;57.63;;;24.13;;
6101;SDS011;3081;50.584;7.032;2024-03-07T04:19:39;57.37;;;21.80;;
6101;SDS011;3081;50.584;7.032;2024-03-07T04:22:07;55.80;;;23.23;;
6101;SDS011;3081;50.584;7.032;2024-03-07T04:24:34;62.17;;;24.03;;
6101;SDS011;3081;50.584;7.032;2024-03-07T04:27:02;55.17;;;23.53;;
6101;SDS011;3081;50.584;7.032;2024-03-07T04:29:30;58.13;;;22.77;;
6101;SDS011;3081;50.584;7.032;2024-03-07T04:31:57;45.87;;;21.13;;
6101;SDS011;3081;50.584;7.032;2024-03-07T04:34:24;46.50;;;20.53;;
6101;SDS011;3081;50.584;7.032;2024-03-07T04:36:53;52.03;;;20.83;;
6101;SDS011;3081;50.584;7.032;2024-03-07T04:39:20;38.83;;;18.37;;
6101;SDS011;3081;50.584;7.032;2024-03-07T04:41:57;55.17;;;21.57;;
6101;SDS011;3081;50.584;7.032;2024-03-07T04:44:26;55.30;;;22.90;;
6101;SDS011;3081;50.584;7.032;2024-03-07T04:46:53;60.13;;;21.90;;
6101;SDS011;3081;50.584;7.032;2024-03-07T04:49:22;58.30;;;22.53;;
6101;SDS011;3081;50.584;7.032;2024-03-07T04:51:49;47.47;;;22.43;;
6101;SDS011;3081;50.584;7.032;2024-03-07T04:54:18;49.77;;;23.73;;
6101;SDS011;3081;50.584;7.032;2024-03-07T04:56:46;55.37;;;23.33;;
6101;SDS011;3081;50.584;7.032;2024-03-07T04:59:13;50.13;;;22.73;;
6101;SDS011;3081;50.584;7.032;2024-03-07T05:01:41;40.37;;;20.70;;
6101;SDS011;3081;50.584;7.032;2024-03-07T05:04:09;50.70;;;20.77;;
6101;SDS011;3081;50.584;7.032;2024-03-07T05:06:37;45.13;;;21.77;;
6101;SDS011;3081;50.584;7.032;2024-03-07T05:09:06;51.13;;;23.70;;
6101;SDS011;3081;50.584;7.032;2024-03-07T05:11:35;54.93;;;24.33;;
6101;SDS011;3081;50.584;7.032;2024-03-07T05:14:03;53.47;;;24.23;;
6101;SDS011;3081;50.584;7.032;2024-03-07T05:16:30;51.37;;;24.37;;
6101;SDS011;3081;50.584;7.032;2024-03-07T05:18:58;68.73;;;26.47;;
6101;SDS011;3081;50.584;7.032;2024-03-07T05:21:25;71.23;;;28.40;;
6101;SDS011;3081;50.584;7.032;2024-03-07T05:24:05;70.37;;;27.60;;
6101;SDS011;3081;50.584;7.032;2024-03-07T05:26:35;75.57;;;30.77;;
6101;SDS011;3081;50.584;7.032;2024-03-07T05:29:04;88.27;;;30.73;;
6101;SDS011;3081;50.584;7.032;2024-03-07T05:31:33;82.20;;;29.50;;
6101;SDS011;3081;50.584;7.032;2024-03-07T05:34:00;68.80;;;28.13;;
6101;SDS011;3081;50.584;7.032;2024-03-07T05:36:29;61.87;;;26.90;;
6101;SDS011;3081;50.584;7.032;2024-03-07T05:38:57;63.37;;;27.83;;
6101;SDS011;3081;50.584;7.032;2024-03-07T05:41:24;54.63;;;26.57;;
6101;SDS011;3081;50.584;7.032;2024-03-07T05:43:56;50.10;;;24.40;;
6101;SDS011;3081;50.584;7.032;2024-03-07T05:46:23;46.37;;;24.67;;
6101;SDS011;3081;50.584;7.032;2024-03-07T05:48:50;56.03;;;24.80;;
6101;SDS011;3081;50.584;7.032;2024-03-07T05:51:21;63.40;;;26.90;;
6101;SDS011;3081;50.584;7.032;2024-03-07T05:53:49;64.97;;;28.07;;
6101;SDS011;3081;50.584;7.032;2024-03-07T05:56:16;51.23;;;25.90;;
6101;SDS011;3081;50.584;7.032;2024-03-07T05:58:43;59.80;;;25.67;;
6101;SDS011;3081;50.584;7.032;2024-03-07T06:01:12;52.57;;;23.70;;
6101;SDS011;3081;50.584;7.032;2024-03-07T06:03:39;53.13;;;27.47;;
6101;SDS011;3081;50.584;7.032;2024-03-07T06:06:06;56.13;;;28.53;;
6101;SDS011;3081;50.584;7.032;2024-03-07T06:08:36;57.97;;;27.97;;
6101;SDS011;3081;50.584;7.032;2024-03-07T06:11:07;52.07;;;26.07;;
6101;SDS011;3081;50.584;7.032;2024-03-07T06:13:34;62.20;;;29.80;;
6101;SDS011;3081;50.584;7.032;2024-03-07T06:16:01;67.70;;;31.10;;
6101;SDS011;3081;50.584;7.032;2024-03-07T06:18:34;62.80;;;30.50;;
6101;SDS011;3081;50.584;7.032;2024-03-07T06:21:01;63.60;;;30.37;;
6101;SDS011;3081;50.584;7.032;2024-03-07T06:23:30;53.07;;;26.87;;
6101;SDS011;3081;50.584;7.032;2024-03-07T06:25:57;58.50;;;27.80;;
6101;SDS011;3081;50.584;7.032;2024-03-07T06:28:26;52.40;;;28.60;;
6101;SDS011;3081;50.584;7.032;2024-03-07T06:30:55;52.23;;;26.80;;
6101;SDS011;3081;50.584;7.032;2024-03-07T06:33:22;50.23;;;25.97;;
6101;SDS011;3081;50.584;7.032;2024-03-07T06:35:52;56.37;;;27.37;;
6101;SDS011;3081;50.584;7.032;2024-03-07T06:38:20;56.63;;;26.50;;
6101;SDS011;3081;50.584;7.032;2024-03-07T06:40:47;50.77;;;28.23;;
6101;SDS011;3081;50.584;7.032;2024-03-07T06:43:15;51.13;;;31.63;;
6101;SDS011;3081;50.584;7.032;2024-03-07T06:45:42;43.27;;;24.73;;
6101;SDS011;3081;50.584;7.032;2024-03-07T06:48:11;46.03;;;25.87;;
6101;SDS011;3081;50.584;7.032;2024-03-07T06:50:39;40.30;;;23.60;;
6101;SDS011;3081;50.584;7.032;2024-03-07T06:53:08;43.77;;;23.00;;
6101;SDS011;3081;50.584;7.032;2024-03-07T06:55:35;44.77;;;23.93;;
6101;SDS011;3081;50.584;7.032;2024-03-07T06:58:03;41.70;;;26.20;;
6101;SDS011;3081;50.584;7.032;2024-03-07T07:00:30;38.07;;;22.17;;
6101;SDS011;3081;50.584;7.032;2024-03-07T07:03:00;39.93;;;23.27;;
6101;SDS011;3081;50.584;7.032;2024-03-07T07:05:30;36.43;;;23.50;;
6101;SDS011;3081;50.584;7.032;2024-03-07T07:07:57;38.63;;;24.07;;
6101;SDS011;3081;50.584;7.032;2024-03-07T07:10:25;37.20;;;22.70;;
6101;SDS011;3081;50.584;7.032;2024-03-07T07:12:52;36.23;;;22.93;;
6101;SDS011;3081;50.584;7.032;2024-03-07T07:15:20;33.50;;;21.03;;
6101;SDS011;3081;50.584;7.032;2024-03-07T07:17:48;43.73;;;26.43;;
6101;SDS011;3081;50.584;7.032;2024-03-07T07:20:16;56.77;;;33.30;;
6101;SDS011;3081;50.584;7.032;2024-03-07T07:22:44;37.60;;;25.30;;
6101;SDS011;3081;50.584;7.032;2024-03-07T07:25:12;39.70;;;22.90;;
6101;SDS011;3081;50.584;7.032;2024-03-07T07:27:43;34.13;;;23.23;;
6101;SDS011;3081;50.584;7.032;2024-03-07T07:30:11;34.57;;;23.60;;
6101;SDS011;3081;50.584;7.032;2024-03-07T07:32:40;32.70;;;21.97;;
6101;SDS011;3081;50.584;7.032;2024-03-07T07:35:08;36.73;;;22.87;;
6101;SDS011;3081;50.584;7.032;2024-03-07T07:37:37;33.97;;;23.03;;
6101;SDS011;3081;50.584;7.032;2024-03-07T07:40:05;41.63;;;27.30;;
6101;SDS011;3081;50.584;7.032;2024-03-07T07:42:34;38.10;;;26.83;;
6101;SDS011;3081;50.584;7.032;2024-03-07T07:45:06;38.37;;;23.40;;
6101;SDS011;3081;50.584;7.032;2024-03-07T07:47:37;42.50;;;27.53;;
6101;SDS011;3081;50.584;7.032;2024-03-07T07:50:06;36.50;;;23.80;;
6101;SDS011;3081;50.584;7.032;2024-03-07T07:52:41;32.97;;;23.07;;
6101;SDS011;3081;50.584;7.032;2024-03-07T07:55:10;35.73;;;24.37;;
6101;SDS011;3081;50.584;7.032;2024-03-07T07:57:40;95.90;;;52.43;;
6101;SDS011;3081;50.584;7.032;2024-03-07T08:00:12;38.30;;;26.80;;
6101;SDS011;3081;50.584;7.032;2024-03-07T08:02:50;47.40;;;27.67;;
6101;SDS011;3081;50.584;7.032;2024-03-07T08:05:18;57.83;;;35.50;;
6101;SDS011;3081;50.584;7.032;2024-03-07T08:07:48;35.50;;;24.30;;
6101;SDS011;3081;50.584;7.032;2024-03-07T08:10:16;29.33;;;19.03;;
6101;SDS011;3081;50.584;7.032;2024-03-07T08:12:44;37.37;;;21.17;;
6101;SDS011;3081;50.584;7.032;2024-03-07T08:15:13;33.07;;;20.23;;
6101;SDS011;3081;50.584;7.032;2024-03-07T08:17:41;29.40;;;18.73;;
6101;SDS011;3081;50.584;7.032;2024-03-07T08:20:12;40.20;;;19.30;;
6101;SDS011;3081;50.584;7.032;2024-03-07T08:22:39;36.23;;;20.27;;
6101;SDS011;3081;50.584;7.032;2024-03-07T08:25:08;40.30;;;17.73;;
6101;SDS011;3081;50.584;7.032;2024-03-07T08:27:36;34.70;;;17.93;;
6101;SDS011;3081;50.584;7.032;2024-03-07T08:30:03;34.43;;;19.80;;
6101;SDS011;3081;50.584;7.032;2024-03-07T08:32:33;62.83;;;21.07;;
6101;SDS011;3081;50.584;7.032;2024-03-07T08:35:03;45.97;;;17.80;;
6101;SDS011;3081;50.584;7.032;2024-03-07T08:37:32;50.20;;;17.50;;
6101;SDS011;3081;50.584;7.032;2024-03-07T08:40:01;29.93;;;14.73;;
6101;SDS011;3081;50.584;7.032;2024-03-07T08:42:31;22.17;;;15.57;;
6101;SDS011;3081;50.584;7.032;2024-03-07T08:44:59;37.80;;;16.17;;
6101;SDS011;3081;50.584;7.032;2024-03-07T08:47:27;29.13;;;16.13;;
6101;SDS011;3081;50.584;7.032;2024-03-07T08:49:57;39.47;;;16.10;;
6101;SDS011;3081;50.584;7.032;2024-03-07T08:52:24;21.13;;;15.27;;
6101;SDS011;3081;50.584;7.032;2024-03-07T08:54:51;25.73;;;16.70;;
6101;SDS011;3081;50.584;7.032;2024-03-07T08:57:19;31.90;;;16.17;;
6101;SDS011;3081;50.584;7.032;2024-03-07T08:59:47;26.90;;;15.37;;
6101;SDS011;3081;50.584;7.032;2024-03-07T09:02:14;28.20;;;14.77;;
6101;SDS011;3081;50.584;7.032;2024-03-07T09:04:41;26.83;;;15.77;;
6101;SDS011;3081;50.584;7.032;2024-03-07T09:07:09;25.40;;;16.47;;
6101;SDS011;3081;50.584;7.032;2024-03-07T09:09:37;28.17;;;17.60;;
6101;SDS011;3081;50.584;7.032;2024-03-07T09:12:04;43.83;;;19.77;;
6101;SDS011;3081;50.584;7.032;2024-03-07T09:14:32;25.23;;;15.40;;
6101;SDS011;3081;50.584;7.032;2024-03-07T09:16:58;24.33;;;14.93;;
6101;SDS011;3081;50.584;7.032;2024-03-07T09:19:25;26.07;;;16.60;;
6101;SDS011;3081;50.584;7.032;2024-03-07T09:21:53;27.77;;;17.87;;
6101;SDS011;3081;50.584;7.032;2024-03-07T09:24:22;29.00;;;16.97;;
6101;SDS011;3081;50.584;7.032;2024-03-07T09:26:49;30.93;;;16.50;;
6101;SDS011;3081;50.584;7.032;2024-03-07T09:29:18;25.17;;;17.10;;
6101;SDS011;3081;50.584;7.032;2024-03-07T09:31:48;37.33;;;20.77;;
6101;SDS011;3081;50.584;7.032;2024-03-07T09:34:18;28.23;;;19.23;;
6101;SDS011;3081;50.584;7.032;2024-03-07T09:36:45;26.60;;;18.40;;
6101;SDS011;3081;50.584;7.032;2024-03-07T09:39:14;45.93;;;19.10;;
6101;SDS011;3081;50.584;7.032;2024-03-07T09:41:42;44.20;;;18.03;;
6101;SDS011;3081;50.584;7.032;2024-03-07T09:44:09;26.00;;;15.23;;
6101;SDS011;3081;50.584;7.032;2024-03-07T09:46:42;25.53;;;17.20;;
6101;SDS011;3081;50.584;7.032;2024-03-07T09:49:12;21.80;;;15.70;;
6101;SDS011;3081;50.584;7.032;2024-03-07T09:51:40;24.60;;;16.20;;
6101;SDS011;3081;50.584;7.032;2024-03-07T09:54:10;20.07;;;14.37;;
6101;SDS011;3081;50.584;7.032;2024-03-07T09:56:37;20.50;;;15.60;;
6101;SDS011;3081;50.584;7.032;2024-03-07T09:59:08;24.70;;;18.17;;
6101;SDS011;3081;50.584;7.032;2024-03-07T10:01:38;25.77;;;15.43;;
6101;SDS011;3081;50.584;7.032;2024-03-07T10:04:08;27.63;;;17.93;;
6101;SDS011;3081;50.584;7.032;2024-03-07T10:06:39;45.47;;;18.27;;
6101;SDS011;3081;50.584;7.032;2024-03-07T10:09:07;25.67;;;16.50;;
6101;SDS011;3081;50.584;7.032;2024-03-07T10:11:34;43.03;;;17.33;;
6101;SDS011;3081;50.584;7.032;2024-03-07T10:14:01;30.13;;;16.03;;
6101;SDS011;3081;50.584;7.032;2024-03-07T10:16:31;30.23;;;16.00;;
6101;SDS011;3081;50.584;7.032;2024-03-07T10:18:58;24.57;;;16.07;;
6101;SDS011;3081;50.584;7.032;2024-03-07T10:21:26;27.80;;;15.83;;
6101;SDS011;3081;50.584;7.032;2024-03-07T10:24:03;28.27;;;17.70;;
6101;SDS011;3081;50.584;7.032;2024-03-07T10:26:34;33.70;;;16.93;;
6101;SDS011;3081;50.584;7.032;2024-03-07T10:29:03;20.37;;;15.40;;
6101;SDS011;3081;50.584;7.032;2024-03-07T10:31:32;34.20;;;22.07;;
6101;SDS011;3081;50.584;7.032;2024-03-07T10:34:02;27.67;;;17.67;;
6101;SDS011;3081;50.584;7.032;2024-03-07T10:36:30;24.93;;;14.60;;
6101;SDS011;3081;50.584;7.032;2024-03-07T10:38:58;26.70;;;16.97;;
6101;SDS011;3081;50.584;7.032;2024-03-07T10:41:37;20.93;;;14.37;;
6101;SDS011;3081;50.584;7.032;2024-03-07T10:44:14;21.37;;;16.93;;
6101;SDS011;3081;50.584;7.032;2024-03-07T10:46:49;23.57;;;14.63;;
6101;SDS011;3081;50.584;7.032;2024-03-07T10:49:21;22.23;;;14.60;;
6101;SDS011;3081;50.584;7.032;2024-03-07T10:51:57;22.13;;;15.53;;
6101;SDS011;3081;50.584;7.032;2024-03-07T10:54:33;28.17;;;15.33;;
6101;SDS011;3081;50.584;7.032;2024-03-07T10:57:15;74.67;;;18.90;;
6101;SDS011;3081;50.584;7.032;2024-03-07T10:59:49;22.17;;;16.03;;
6101;SDS011;3081;50.584;7.032;2024-03-07T11:02:27;19.13;;;15.60;;
6101;SDS011;3081;50.584;7.032;2024-03-07T11:04:59;35.17;;;16.00;;
6101;SDS011;3081;50.584;7.032;2024-03-07T11:07:27;28.70;;;14.13;;
6101;SDS011;3081;50.584;7.032;2024-03-07T11:09:56;23.20;;;16.50;;
6101;SDS011;3081;50.584;7.032;2024-03-07T11:12:24;26.13;;;16.90;;
6101;SDS011;3081;50.584;7.032;2024-03-07T11:14:53;21.30;;;16.53;;
6101;SDS011;3081;50.584;7.032;2024-03-07T11:17:22;29.70;;;20.07;;
6101;SDS011;3081;50.584;7.032;2024-03-07T11:19:51;24.50;;;17.07;;
6101;SDS011;3081;50.584;7.032;2024-03-07T11:22:28;25.30;;;15.43;;
6101;SDS011;3081;50.584;7.032;2024-03-07T11:25:01;19.57;;;13.27;;
6101;SDS011;3081;50.584;7.032;2024-03-07T11:27:32;28.23;;;18.13;;
6101;SDS011;3081;50.584;7.032;2024-03-07T11:30:07;19.23;;;13.17;;
6101;SDS011;3081;50.584;7.032;2024-03-07T11:32:37;22.00;;;16.67;;
6101;SDS011;3081;50.584;7.032;2024-03-07T11:35:12;25.00;;;16.40;;
6101;SDS011;3081;50.584;7.032;2024-03-07T11:37:40;20.63;;;16.30;;
6101;SDS011;3081;50.584;7.032;2024-03-07T11:40:11;20.83;;;16.53;;
6101;SDS011;3081;50.584;7.032;2024-03-07T11:42:45;24.27;;;16.30;;
6101;SDS011;3081;50.584;7.032;2024-03-07T11:45:14;33.53;;;16.40;;
6101;SDS011;3081;50.584;7.032;2024-03-07T11:47:50;20.93;;;16.00;;
6101;SDS011;3081;50.584;7.032;2024-03-07T11:50:24;20.07;;;14.70;;
6101;SDS011;3081;50.584;7.032;2024-03-07T11:52:52;39.47;;;16.33;;
6101;SDS011;3081;50.584;7.032;2024-03-07T11:55:20;24.77;;;17.23;;
6101;SDS011;3081;50.584;7.032;2024-03-07T11:57:47;33.53;;;17.97;;
6101;SDS011;3081;50.584;7.032;2024-03-07T12:00:17;26.87;;;19.07;;
6101;SDS011;3081;50.584;7.032;2024-03-07T12:02:45;30.10;;;17.97;;
6101;SDS011;3081;50.584;7.032;2024-03-07T12:05:14;23.87;;;16.80;;
6101;SDS011;3081;50.584;7.032;2024-03-07T12:07:43;28.00;;;17.20;;
6101;SDS011;3081;50.584;7.032;2024-03-07T12:10:10;22.57;;;14.90;;
6101;SDS011;3081;50.584;7.032;2024-03-07T12:12:38;25.07;;;16.43;;
6101;SDS011;3081;50.584;7.032;2024-03-07T12:15:05;34.00;;;16.13;;
6101;SDS011;3081;50.584;7.032;2024-03-07T12:17:41;24.17;;;16.97;;
6101;SDS011;3081;50.584;7.032;2024-03-07T12:20:09;27.10;;;15.77;;
6101;SDS011;3081;50.584;7.032;2024-03-07T12:22:56;25.47;;;15.70;;
6101;SDS011;3081;50.584;7.032;2024-03-07T12:25:24;28.40;;;16.67;;
6101;SDS011;3081;50.584;7.032;2024-03-07T12:28:04;53.97;;;19.27;;
6101;SDS011;3081;50.584;7.032;2024-03-07T12:30:38;22.77;;;16.00;;
6101;SDS011;3081;50.584;7.032;2024-03-07T12:33:16;30.03;;;17.53;;
6101;SDS011;3081;50.584;7.032;2024-03-07T12:35:44;25.67;;;15.90;;
6101;SDS011;3081;50.584;7.032;2024-03-07T12:38:14;43.17;;;16.57;;
6101;SDS011;3081;50.584;7.032;2024-03-07T12:40:42;23.20;;;15.27;;
6101;SDS011;3081;50.584;7.032;2024-03-07T12:43:14;42.50;;;14.93;;
6101;SDS011;3081;50.584;7.032;2024-03-07T12:45:48;19.20;;;13.37;;
6101;SDS011;3081;50.584;7.032;2024-03-07T12:48:16;20.07;;;13.27;;
6101;SDS011;3081;50.584;7.032;2024-03-07T12:50:45;19.70;;;13.63;;
6101;SDS011;3081;50.584;7.032;2024-03-07T12:53:17;16.63;;;12.50;;
6101;SDS011;3081;50.584;7.032;2024-03-07T12:55:44;19.97;;;14.00;;
6101;SDS011;3081;50.584;7.032;2024-03-07T12:58:11;27.23;;;17.10;;
6101;SDS011;3081;50.584;7.032;2024-03-07T13:00:40;19.70;;;14.03;;
6101;SDS011;3081;50.584;7.032;2024-03-07T13:03:08;16.13;;;12.63;;
6101;SDS011;3081;50.584;7.032;2024-03-07T13:05:36;18.90;;;14.27;;
6101;SDS011;3081;50.584;7.032;2024-03-07T13:08:05;17.37;;;13.17;;
6101;SDS011;3081;50.584;7.032;2024-03-07T13:10:38;20.20;;;14.23;;
6101;SDS011;3081;50.584;7.032;2024-03-07T13:13:06;34.13;;;20.37;;
6101;SDS011;3081;50.584;7.032;2024-03-07T13:15:34;36.47;;;22.03;;
6101;SDS011;3081;50.584;7.032;2024-03-07T13:18:04;38.90;;;21.87;;
6101;SDS011;3081;50.584;7.032;2024-03-07T13:20:32;39.50;;;20.83;;
6101;SDS011;3081;50.584;7.032;2024-03-07T13:22:59;33.80;;;18.50;;
6101;SDS011;3081;50.584;7.032;2024-03-07T13:25:27;41.37;;;18.87;;
6101;SDS011;3081;50.584;7.032;2024-03-07T13:28:00;32.47;;;19.07;;
6101;SDS011;3081;50.584;7.032;2024-03-07T13:30:29;40.13;;;21.27;;
6101;SDS011;3081;50.584;7.032;2024-03-07T13:32:56;37.03;;;18.17;;
6101;SDS011;3081;50.584;7.032;2024-03-07T13:35:24;23.57;;;14.80;;
6101;SDS011;3081;50.584;7.032;2024-03-07T13:37:53;93.47;;;38.47;;
6101;SDS011;3081;50.584;7.032;2024-03-07T13:40:21;35.23;;;17.20;;
6101;SDS011;3081;50.584;7.032;2024-03-07T13:42:50;18.67;;;12.10;;
6101;SDS011;3081;50.584;7.032;2024-03-07T13:45:20;38.30;;;18.73;;
6101;SDS011;3081;50.584;7.032;2024-03-07T13:47:48;34.87;;;16.83;;
6101;SDS011;3081;50.584;7.032;2024-03-07T13:50:18;20.30;;;12.50;;
6101;SDS011;3081;50.584;7.032;2024-03-07T13:52:47;23.47;;;13.77;;
6101;SDS011;3081;50.584;7.032;2024-03-07T13:55:50;71.30;;;25.93;;
6101;SDS011;3081;50.584;7.032;2024-03-07T13:58:45;36.43;;;21.90;;
6101;SDS011;3081;50.584;7.032;2024-03-07T14:01:37;19.27;;;12.83;;
6101;SDS011;3081;50.584;7.032;2024-03-07T14:04:22;32.20;;;16.20;;
6101;SDS011;3081;50.584;7.032;2024-03-07T14:07:16;19.57;;;12.50;;
6101;SDS011;3081;50.584;7.032;2024-03-07T14:10:16;26.33;;;15.17;;
6101;SDS011;3081;50.584;7.032;2024-03-07T14:13:06;20.23;;;12.93;;
6101;SDS011;3081;50.584;7.032;2024-03-07T14:16:04;12.47;;;9.90;;
6101;SDS011;3081;50.584;7.032;2024-03-07T14:22:06;15.67;;;10.13;;
6101;SDS011;3081;50.584;7.032;2024-03-07T14:25:00;32.27;;;18.33;;
6101;SDS011;3081;50.584;7.032;2024-03-07T14:27:48;20.23;;;12.80;;
6101;SDS011;3081;50.584;7.032;2024-03-07T14:30:24;19.23;;;11.53;;
6101;SDS011;3081;50.584;7.032;2024-03-07T14:33:05;24.10;;;14.07;;
6101;SDS011;3081;50.584;7.032;2024-03-07T14:35:39;21.03;;;11.73;;
6101;SDS011;3081;50.584;7.032;2024-03-07T14:38:29;15.23;;;11.33;;
6101;SDS011;3081;50.584;7.032;2024-03-07T14:41:07;20.50;;;12.37;;
6101;SDS011;3081;50.584;7.032;2024-03-07T14:43:37;19.83;;;11.00;;
6101;SDS011;3081;50.584;7.032;2024-03-07T14:46:06;27.63;;;16.57;;
6101;SDS011;3081;50.584;7.032;2024-03-07T14:48:35;25.77;;;12.63;;
6101;SDS011;3081;50.584;7.032;2024-03-07T14:51:03;20.37;;;13.60;;
6101;SDS011;3081;50.584;7.032;2024-03-07T14:53:33;37.47;;;21.07;;
6101;SDS011;3081;50.584;7.032;2024-03-07T14:56:00;23.50;;;13.97;;
6101;SDS011;3081;50.584;7.032;2024-03-07T14:58:27;33.80;;;19.77;;
6101;SDS011;3081;50.584;7.032;2024-03-07T15:00:54;37.83;;;17.97;;